Time;durP1;ratioP1;P1;durP2;ratioP2;P2;SDS_P1;SDS_P2;PMS_P1;PMS_P2;Temp;Humidity;BMP_temperature;BMP_pressure;BME280_temperature;BME280_humidity;BME280_pressure;Samples;Min_cycle;Max_cycle;Signal;HPM_P1;HPM_P2
2023/08/13 00:01:07;;;;;;;11.27;8.30;;;22.00;35.60;;;;;;5019733;28;20479;-71
2023/08/13 00:03:33;;;;;;;10.40;8.30;;;22.00;35.30;;;;;;5021913;28;20512;-71
2023/08/13 00:06:00;;;;;;;9.60;7.73;;;21.90;35.40;;;;;;5024989;28;21094;-71
2023/08/13 00:08:28;;;;;;;10.23;8.00;;;21.90;35.50;;;;;;5026680;28;20513;-71
2023/08/13 00:10:55;;;;;;;9.67;7.90;;;21.80;35.60;;;;;;5022253;28;20470;-71
2023/08/13 00:13:22;;;;;;;11.23;7.90;;;21.80;35.70;;;;;;5022651;28;20467;-71
2023/08/13 00:15:48;;;;;;;8.90;6.77;;;21.80;35.70;;;;;;5024634;28;20490;-71
2023/08/13 00:18:15;;;;;;;9.10;7.43;;;21.80;36.40;;;;;;5023545;28;21307;-71
2023/08/13 00:20:42;;;;;;;10.50;8.10;;;21.80;36.00;;;;;;5023972;28;20482;-71
2023/08/13 00:23:08;;;;;;;12.87;9.27;;;21.80;36.10;;;;;;5027241;28;20466;-71
2023/08/13 00:25:36;;;;;;;11.93;7.40;;;21.70;36.00;;;;;;5020674;28;20463;-71
2023/08/13 00:28:03;;;;;;;11.33;8.57;;;21.70;35.90;;;;;;5024762;28;20487;-71
2023/08/13 00:30:30;;;;;;;9.87;7.83;;;21.70;35.90;;;;;;5022236;28;20462;-71
2023/08/13 00:32:57;;;;;;;10.93;8.60;;;21.70;35.90;;;;;;5025217;28;20524;-71
2023/08/13 00:35:23;;;;;;;13.83;8.90;;;21.60;36.10;;;;;;5026449;28;20469;-71
2023/08/13 00:37:50;;;;;;;10.83;8.67;;;21.60;36.50;;;;;;5026440;28;20750;-71
2023/08/13 00:40:17;;;;;;;10.93;9.17;;;21.60;36.70;;;;;;5020584;28;20464;-71
2023/08/13 00:42:45;;;;;;;13.03;9.70;;;21.50;36.80;;;;;;5025086;28;20473;-71
2023/08/13 00:45:12;;;;;;;11.43;9.10;;;21.50;37.10;;;;;;5019291;28;20495;-71
2023/08/13 00:47:39;;;;;;;10.07;9.00;;;21.50;37.40;;;;;;5025712;28;20482;-71
2023/08/13 00:50:07;;;;;;;10.30;8.43;;;21.50;37.30;;;;;;5024652;28;20507;-71
2023/08/13 00:52:34;;;;;;;9.77;8.73;;;21.50;37.30;;;;;;5025372;28;20469;-71
2023/08/13 00:55:00;;;;;;;10.03;8.17;;;21.50;37.10;;;;;;5022646;28;20494;-71
2023/08/13 00:57:27;;;;;;;11.03;7.60;;;21.50;37.00;;;;;;5022226;28;21061;-71
2023/08/13 00:59:55;;;;;;;8.90;7.50;;;21.50;36.90;;;;;;5022159;28;20467;-72
2023/08/13 01:02:22;;;;;;;9.63;7.60;;;21.40;36.80;;;;;;5021273;28;20478;-71
2023/08/13 01:04:49;;;;;;;12.80;8.23;;;21.40;36.50;;;;;;5024401;28;20466;-71
2023/08/13 01:07:22;;;;;;;8.40;7.33;;;21.40;36.70;;;;;;5025369;28;20834;-71
2023/08/13 01:10:09;;;;;;;9.40;8.40;;;21.30;36.90;;;;;;5024740;28;20544;-71
2023/08/13 01:12:44;;;;;;;12.87;9.17;;;21.30;37.20;;;;;;5026104;28;20486;-71
2023/08/13 01:15:17;;;;;;;9.43;8.40;;;21.20;37.50;;;;;;5025483;28;20981;-71
2023/08/13 01:17:45;;;;;;;11.50;8.87;;;21.20;37.50;;;;;;5027191;28;20494;-71
2023/08/13 01:20:14;;;;;;;10.33;9.03;;;21.10;38.00;;;;;;5029422;28;20458;-71
2023/08/13 01:22:46;;;;;;;11.13;9.73;;;21.10;38.20;;;;;;5025108;28;20510;-71
2023/08/13 01:25:14;;;;;;;14.20;9.90;;;21.10;38.50;;;;;;5023777;28;20556;-71
2023/08/13 01:27:49;;;;;;;11.63;9.03;;;21.10;38.40;;;;;;5026681;28;20494;-71
2023/08/13 01:30:22;;;;;;;10.70;9.40;;;21.10;38.50;;;;;;5024165;28;20470;-71
2023/08/13 01:32:55;;;;;;;9.27;8.27;;;21.10;38.50;;;;;;5027466;28;20466;-71
2023/08/13 01:35:25;;;;;;;10.53;9.07;;;21.10;38.30;;;;;;5025713;28;20970;-71
2023/08/13 01:37:54;;;;;;;9.67;8.07;;;21.10;38.30;;;;;;5028276;28;20490;-72
2023/08/13 01:40:20;;;;;;;9.73;7.60;;;21.10;38.10;;;;;;5024498;28;20469;-72
2023/08/13 01:42:47;;;;;;;8.67;6.80;;;21.10;37.80;;;;;;5025928;28;20475;-71
2023/08/13 01:45:14;;;;;;;10.47;6.80;;;21.10;37.60;;;;;;5026752;28;20462;-71
2023/08/13 01:47:41;;;;;;;8.33;7.20;;;21.10;37.20;;;;;;5028536;28;20510;-72
2023/08/13 01:50:08;;;;;;;8.53;5.53;;;21.00;37.00;;;;;;5020698;28;20474;-72
2023/08/13 01:52:35;;;;;;;6.93;5.03;;;20.90;37.00;;;;;;5026102;28;20470;-71
2023/08/13 01:55:05;;;;;;;5.93;5.17;;;20.90;37.10;;;;;;5024328;28;20467;-71
2023/08/13 01:57:32;;;;;;;7.60;5.73;;;20.90;37.10;;;;;;5027633;28;20541;-71
2023/08/13 01:59:58;;;;;;;9.10;6.90;;;20.80;37.10;;;;;;5024073;28;20467;-71
2023/08/13 02:02:25;;;;;;;9.03;6.27;;;20.80;37.00;;;;;;5026507;28;20972;-72
2023/08/13 02:04:52;;;;;;;8.83;6.83;;;20.70;36.90;;;;;;5028664;28;20976;-72
2023/08/13 02:07:18;;;;;;;9.67;7.80;;;20.70;37.00;;;;;;5026983;28;20486;-71
2023/08/13 02:09:45;;;;;;;11.83;8.70;;;20.60;37.10;;;;;;5022371;28;20550;-72
2023/08/13 02:12:13;;;;;;;9.00;7.30;;;20.60;37.60;;;;;;5024333;28;20459;-71
2023/08/13 02:14:40;;;;;;;9.13;8.13;;;20.60;37.50;;;;;;5028781;28;20471;-72
2023/08/13 02:17:12;;;;;;;8.00;7.17;;;20.60;37.70;;;;;;5026087;28;20573;-71
2023/08/13 02:19:39;;;;;;;11.43;8.10;;;20.60;37.80;;;;;;5025596;28;20473;-71
2023/08/13 02:22:06;;;;;;;11.00;7.97;;;20.60;37.60;;;;;;5026174;28;20479;-71
2023/08/13 02:24:32;;;;;;;10.23;8.40;;;20.50;37.60;;;;;;5026120;28;20482;-71
2023/08/13 02:26:59;;;;;;;9.77;8.23;;;20.50;37.60;;;;;;5026821;28;20467;-71
2023/08/13 02:29:27;;;;;;;10.40;7.50;;;20.50;37.60;;;;;;5028483;28;21006;-72
2023/08/13 02:31:54;;;;;;;10.90;7.90;;;20.40;37.30;;;;;;5025982;28;20481;-71
2023/08/13 02:34:22;;;;;;;11.77;8.27;;;20.40;37.10;;;;;;5027933;28;20979;-71
2023/08/13 02:36:49;;;;;;;9.03;7.73;;;20.50;37.30;;;;;;5026133;28;20486;-71
2023/08/13 02:39:16;;;;;;;13.27;9.20;;;20.40;37.40;;;;;;5028267;28;20474;-71
2023/08/13 02:41:42;;;;;;;11.90;8.37;;;20.40;37.50;;;;;;5026839;28;20482;-72
2023/08/13 02:44:09;;;;;;;10.37;8.10;;;20.40;37.30;;;;;;5028348;28;21303;-71
2023/08/13 02:46:37;;;;;;;11.67;9.10;;;20.40;37.50;;;;;;5023708;28;20479;-71
2023/08/13 02:49:05;;;;;;;11.40;9.53;;;20.40;37.40;;;;;;5025298;28;20490;-71
2023/08/13 02:51:32;;;;;;;12.43;11.10;;;20.40;37.70;;;;;;5027864;28;20474;-71
2023/08/13 02:53:58;;;;;;;14.87;10.73;;;20.40;37.90;;;;;;5025855;28;20463;-71
2023/08/13 02:56:25;;;;;;;11.80;10.60;;;20.40;38.10;;;;;;5025523;28;20474;-71
2023/08/13 02:58:52;;;;;;;11.70;8.77;;;20.40;38.10;;;;;;5025470;28;20497;-71
2023/08/13 03:01:18;;;;;;;10.50;7.67;;;20.40;38.10;;;;;;5021599;28;20486;-71
2023/08/13 03:03:48;;;;;;;8.63;7.00;;;20.40;38.10;;;;;;5025199;28;20845;-71
2023/08/13 03:06:15;;;;;;;9.93;7.80;;;20.30;38.40;;;;;;5022524;28;20982;-71
2023/08/13 03:08:42;;;;;;;8.23;6.67;;;20.30;38.50;;;;;;5028068;28;20498;-71
2023/08/13 03:11:09;;;;;;;11.17;7.60;;;20.30;38.50;;;;;;5023325;28;20849;-71
2023/08/13 03:13:35;;;;;;;14.60;8.93;;;20.20;38.50;;;;;;5023720;28;20467;-71
2023/08/13 03:16:02;;;;;;;8.87;7.43;;;20.20;38.70;;;;;;5020017;28;20466;-71
2023/08/13 03:18:29;;;;;;;10.60;7.17;;;20.20;38.80;;;;;;5024657;28;20486;-71
2023/08/13 03:20:57;;;;;;;11.23;10.03;;;20.20;38.70;;;;;;5026366;28;20796;-71
2023/08/13 03:23:24;;;;;;;14.63;9.50;;;20.20;38.70;;;;;;5021661;28;20483;-71
2023/08/13 03:25:51;;;;;;;10.13;8.87;;;20.20;38.90;;;;;;5026241;28;20467;-71
2023/08/13 03:28:17;;;;;;;9.70;8.70;;;20.20;38.70;;;;;;5023729;28;20493;-71
2023/08/13 03:30:44;;;;;;;10.53;9.27;;;20.10;38.50;;;;;;5022494;28;20467;-71
2023/08/13 03:33:11;;;;;;;10.13;8.87;;;20.10;38.50;;;;;;5021329;28;20467;-71
2023/08/13 03:35:38;;;;;;;9.33;8.07;;;20.10;38.40;;;;;;5025614;28;20466;-71
2023/08/13 03:38:06;;;;;;;13.73;10.20;;;20.10;38.30;;;;;;5023999;28;20552;-71
2023/08/13 03:40:33;;;;;;;11.37;10.17;;;20.00;38.50;;;;;;5024364;28;20478;-71
2023/08/13 03:43:00;;;;;;;11.70;9.50;;;20.10;38.40;;;;;;5024440;28;20478;-71
2023/08/13 03:45:26;;;;;;;10.20;9.03;;;20.10;38.40;;;;;;5021259;28;20473;-71
2023/08/13 03:47:54;;;;;;;11.27;9.17;;;20.10;38.30;;;;;;5027604;28;20491;-71
2023/08/13 03:50:21;;;;;;;11.53;9.90;;;20.10;38.30;;;;;;5024985;28;20840;-72
2023/08/13 03:52:48;;;;;;;10.13;8.57;;;20.10;38.30;;;;;;5020985;28;20474;-71
2023/08/13 03:55:16;;;;;;;10.37;9.27;;;20.00;38.50;;;;;;5024861;28;20474;-71
2023/08/13 03:57:43;;;;;;;11.40;10.23;;;20.00;38.50;;;;;;5020511;28;20481;-70
2023/08/13 04:00:10;;;;;;;13.50;10.30;;;20.00;38.60;;;;;;5022872;28;20459;-67
2023/08/13 04:02:38;;;;;;;11.63;10.13;;;20.00;38.90;;;;;;5023245;28;20482;-67
2023/08/13 04:05:06;;;;;;;12.30;10.00;;;20.00;39.20;;;;;;5026019;28;20458;-71
2023/08/13 04:07:33;;;;;;;13.63;9.57;;;20.00;39.10;;;;;;5025933;28;20487;-72
2023/08/13 04:09:59;;;;;;;9.90;8.87;;;20.10;39.20;;;;;;5021322;28;20469;-71
2023/08/13 04:12:27;;;;;;;10.63;8.90;;;20.20;39.10;;;;;;5023904;28;20459;-71
2023/08/13 04:14:54;;;;;;;10.60;9.20;;;20.20;38.90;;;;;;5023827;28;20466;-72
2023/08/13 04:17:21;;;;;;;12.40;9.67;;;20.20;38.80;;;;;;5022981;28;20491;-72
2023/08/13 04:19:47;;;;;;;9.53;8.53;;;20.30;38.80;;;;;;5024050;28;20478;-72
2023/08/13 04:22:14;;;;;;;9.87;8.57;;;20.40;38.70;;;;;;5023070;28;20589;-72
2023/08/13 04:24:41;;;;;;;12.57;8.20;;;20.40;38.60;;;;;;5023735;28;23226;-72
2023/08/13 04:27:07;;;;;;;9.43;8.47;;;20.40;38.40;;;;;;5022497;28;20490;-72
2023/08/13 04:29:35;;;;;;;14.03;9.47;;;20.50;38.10;;;;;;5020494;28;20474;-72
2023/08/13 04:32:02;;;;;;;10.17;9.07;;;20.50;38.00;;;;;;5024721;28;20939;-72
2023/08/13 04:34:29;;;;;;;9.67;7.93;;;20.50;38.00;;;;;;5019927;28;20464;-72
2023/08/13 04:36:55;;;;;;;15.10;9.30;;;20.50;37.80;;;;;;5023071;28;20931;-72
2023/08/13 04:39:22;;;;;;;9.37;8.47;;;20.50;38.00;;;;;;5021952;28;20467;-72
2023/08/13 04:41:49;;;;;;;9.60;8.00;;;20.50;37.90;;;;;;5023754;28;21100;-72
2023/08/13 04:44:15;;;;;;;10.07;8.60;;;20.50;37.80;;;;;;5026986;28;20459;-72
2023/08/13 04:46:43;;;;;;;9.70;8.57;;;20.60;37.70;;;;;;5027847;28;20481;-72
2023/08/13 04:49:09;;;;;;;11.03;8.23;;;20.60;38.00;;;;;;5027497;28;20251;-72
2023/08/13 04:51:36;;;;;;;8.77;7.00;;;20.60;38.10;;;;;;5027055;28;20978;-72
2023/08/13 04:54:03;;;;;;;8.90;7.27;;;20.70;38.20;;;;;;5026506;28;20470;-72
2023/08/13 04:56:29;;;;;;;13.13;8.33;;;20.70;37.90;;;;;;5031456;28;21171;-72
2023/08/13 04:58:56;;;;;;;11.90;9.23;;;20.70;37.70;;;;;;5027804;28;20498;-71
2023/08/13 05:01:23;;;;;;;13.63;9.10;;;20.60;37.60;;;;;;5051690;23;20866;-65
2023/08/13 05:03:51;;;;;;;12.77;10.10;;;20.60;37.60;;;;;;5042004;28;20491;-65
2023/08/13 05:06:18;;;;;;;12.37;9.80;;;20.60;37.50;;;;;;5046784;28;20569;-65
2023/08/13 05:08:45;;;;;;;12.53;9.13;;;20.70;37.80;;;;;;5041306;28;20470;-65
2023/08/13 05:11:12;;;;;;;12.57;9.50;;;20.70;37.90;;;;;;5042228;28;20494;-65
2023/08/13 05:13:38;;;;;;;11.03;9.83;;;20.70;37.90;;;;;;5039903;28;20462;-64
2023/08/13 05:16:05;;;;;;;12.13;10.20;;;20.70;38.00;;;;;;5046500;28;20473;-65
2023/08/13 05:18:32;;;;;;;11.63;9.73;;;20.70;38.00;;;;;;5046004;28;20462;-65
2023/08/13 05:21:00;;;;;;;19.27;10.27;;;20.70;37.90;;;;;;5038906;28;20486;-65
2023/08/13 05:23:27;;;;;;;16.13;9.77;;;20.80;37.80;;;;;;5045771;28;20498;-65
2023/08/13 05:25:54;;;;;;;17.63;10.67;;;20.80;37.80;;;;;;5043026;28;20477;-65
2023/08/13 05:28:21;;;;;;;17.20;9.83;;;20.80;37.90;;;;;;5047621;28;20462;-65
2023/08/13 05:30:48;;;;;;;13.50;11.63;;;20.90;38.00;;;;;;5044335;28;20472;-65
2023/08/13 05:33:15;;;;;;;12.27;10.70;;;20.90;38.00;;;;;;5043338;28;20467;-65
2023/08/13 05:35:42;;;;;;;11.20;10.00;;;21.00;37.90;;;;;;5045248;28;20458;-65
2023/08/13 05:38:10;;;;;;;13.40;10.10;;;21.10;37.80;;;;;;5044821;28;20469;-65
2023/08/13 05:40:36;;;;;;;13.27;10.60;;;21.10;37.50;;;;;;5046458;28;20474;-65
2023/08/13 05:43:03;;;;;;;12.60;10.20;;;21.20;37.60;;;;;;5044829;28;20956;-65
2023/08/13 05:45:30;;;;;;;12.83;9.73;;;21.20;37.50;;;;;;5046093;28;20481;-65
2023/08/13 05:47:57;;;;;;;13.57;10.57;;;21.30;37.40;;;;;;5042386;28;20830;-64
2023/08/13 05:50:24;;;;;;;14.00;10.40;;;21.30;37.20;;;;;;5044899;28;20530;-65
2023/08/13 05:52:51;;;;;;;14.90;9.90;;;21.30;37.20;;;;;;5043157;28;20490;-65
2023/08/13 05:55:19;;;;;;;11.33;8.83;;;21.40;37.10;;;;;;5044900;28;20470;-65
2023/08/13 05:57:46;;;;;;;11.10;9.37;;;21.50;37.20;;;;;;5044833;28;20462;-66
2023/08/13 06:00:13;;;;;;;13.43;9.20;;;21.60;36.90;;;;;;5043992;28;20466;-67
2023/08/13 06:02:40;;;;;;;10.47;9.20;;;21.80;36.60;;;;;;5042014;28;20494;-64
2023/08/13 06:05:20;;;;;;;12.80;11.00;;;21.90;36.40;;;;;;5043060;28;20476;-66
2023/08/13 06:07:47;;;;;;;17.80;16.00;;;22.10;36.30;;;;;;5039898;28;20454;-64
2023/08/13 06:10:13;;;;;;;15.17;13.60;;;23.20;36.30;;;;;;5043531;28;20465;-65
2023/08/13 06:12:42;;;;;;;10.60;9.50;;;24.80;31.60;;;;;;5045450;28;20478;-65
2023/08/13 06:15:09;;;;;;;8.80;7.83;;;25.50;28.30;;;;;;5046346;28;20606;-66
2023/08/13 06:17:36;;;;;;;9.83;7.53;;;25.60;25.30;;;;;;5046212;28;20454;-66
2023/08/13 06:20:03;;;;;;;9.57;8.03;;;25.40;25.30;;;;;;5036164;28;20580;-67
2023/08/13 06:22:30;;;;;;;9.83;8.43;;;25.30;25.90;;;;;;5040539;28;20478;-66
2023/08/13 06:24:57;;;;;;;10.33;8.77;;;25.20;25.90;;;;;;5048163;28;20457;-66
2023/08/13 06:27:24;;;;;;;11.40;8.33;;;25.20;26.10;;;;;;5034791;28;20466;-66
2023/08/13 06:29:52;;;;;;;10.73;8.60;;;25.30;25.80;;;;;;5039399;28;20469;-65
2023/08/13 06:32:19;;;;;;;11.40;9.00;;;25.40;25.40;;;;;;5044479;28;20485;-66
2023/08/13 06:34:45;;;;;;;11.77;8.77;;;25.50;25.20;;;;;;5046743;28;20837;-66
2023/08/13 06:37:12;;;;;;;11.07;9.90;;;26.20;25.70;;;;;;5046305;28;20468;-67
2023/08/13 06:39:39;;;;;;;11.30;10.10;;;27.50;21.50;;;;;;5044574;28;20580;-67
2023/08/13 06:42:06;;;;;;;11.93;9.97;;;28.10;19.10;;;;;;5044306;28;20490;-67
2023/08/13 06:44:33;;;;;;;11.87;8.90;;;28.30;17.50;;;;;;5045246;28;20466;-66
2023/08/13 06:47:01;;;;;;;9.93;8.43;;;28.30;17.10;;;;;;5044945;28;21088;-66
2023/08/13 06:49:28;;;;;;;12.67;8.97;;;28.00;17.10;;;;;;5041489;28;20466;-68
2023/08/13 06:51:55;;;;;;;12.07;8.43;;;27.50;17.50;;;;;;5036207;28;20486;-66
2023/08/13 06:54:22;;;;;;;11.47;9.03;;;27.10;18.50;;;;;;5043306;28;20450;-65
2023/08/13 06:56:49;;;;;;;9.97;8.93;;;26.80;19.20;;;;;;5046349;28;20460;-66
2023/08/13 06:59:15;;;;;;;13.80;9.80;;;26.40;20.00;;;;;;5047335;28;20473;-64
2023/08/13 07:01:42;;;;;;;9.97;8.97;;;26.20;21.20;;;;;;5044044;28;20481;-66
2023/08/13 07:04:10;;;;;;;14.37;10.30;;;26.00;22.20;;;;;;5041698;28;20478;-66
2023/08/13 07:06:37;;;;;;;11.03;9.93;;;25.90;22.60;;;;;;5038988;28;20470;-66
2023/08/13 07:09:04;;;;;;;12.20;10.70;;;26.00;23.10;;;;;;5043649;28;20454;-66
2023/08/13 07:11:32;;;;;;;11.70;9.63;;;25.90;22.70;;;;;;5044887;28;20488;-72
2023/08/13 07:13:59;;;;;;;9.90;8.90;;;25.80;22.70;;;;;;5038516;28;20463;-66
2023/08/13 07:16:26;;;;;;;11.27;10.07;;;25.60;23.20;;;;;;5032681;28;20470;-66
2023/08/13 07:18:53;;;;;;;13.23;10.90;;;25.50;23.90;;;;;;5043614;28;20635;-66
2023/08/13 07:21:21;;;;;;;12.53;10.97;;;25.20;25.00;;;;;;5031599;28;20545;-66
2023/08/13 07:23:48;;;;;;;13.47;11.33;;;25.00;25.90;;;;;;5021374;28;20486;-65
2023/08/13 07:26:15;;;;;;;12.67;10.73;;;24.80;26.60;;;;;;5036714;28;21096;-67
2023/08/13 07:28:44;;;;;;;13.47;12.17;;;24.80;27.20;;;;;;5030659;28;20458;-65
2023/08/13 07:31:11;;;;;;;13.30;11.90;;;24.90;27.80;;;;;;5027966;28;20483;-66
2023/08/13 07:33:37;;;;;;;13.43;12.03;;;25.30;27.50;;;;;;5024635;28;20473;-66
2023/08/13 07:36:05;;;;;;;12.50;11.30;;;25.80;26.70;;;;;;5040298;28;20469;-65
2023/08/13 07:38:34;;;;;;;11.70;10.50;;;27.20;24.60;;;;;;5046122;28;20564;-67
2023/08/13 07:41:03;;;;;;;11.13;10.03;;;28.50;19.40;;;;;;5042213;28;20477;-66
2023/08/13 07:43:30;;;;;;;11.53;9.60;;;30.30;16.80;;;;;;5032505;28;20567;-67
2023/08/13 07:45:56;;;;;;;10.60;9.17;;;31.70;12.40;;;;;;5035010;28;20477;-66
2023/08/13 07:48:23;;;;;;;10.73;9.00;;;33.50;9.50;;;;;;5035886;28;20466;-67
2023/08/13 07:50:51;;;;;;;11.10;8.50;;;34.90;5.20;;;;;;5036339;28;20467;-67
2023/08/13 07:53:18;;;;;;;9.10;7.70;;;36.20;2.70;;;;;;5039163;28;20454;-67
2023/08/13 07:55:46;;;;;;;9.73;8.73;;;38.20;1.00;;;;;;5039504;28;20522;-67
2023/08/13 07:58:14;;;;;;;8.83;7.93;;;40.30;1.00;;;;;;5038079;28;20454;-67
2023/08/13 08:00:41;;;;;;;9.00;7.90;;;41.60;1.00;;;;;;5030268;28;20963;-67
2023/08/13 08:03:09;;;;;;;8.37;7.57;;;42.90;1.00;;;;;;5039107;28;20539;-67
2023/08/13 08:05:36;;;;;;;8.70;7.80;;;44.00;1.00;;;;;;5034661;28;20461;-67
2023/08/13 08:08:03;;;;;;;7.80;6.97;;;44.30;1.00;;;;;;5041551;28;20459;-67
2023/08/13 08:10:30;;;;;;;8.53;7.27;;;44.40;1.00;;;;;;5042386;28;20523;-67
2023/08/13 08:12:58;;;;;;;7.23;6.60;;;45.30;1.00;;;;;;5042333;28;20478;-67
2023/08/13 08:15:25;;;;;;;7.30;5.93;;;46.40;1.00;;;;;;5037833;28;20811;-67
2023/08/13 08:17:52;;;;;;;6.03;5.43;;;47.40;1.00;;;;;;5036441;28;20940;-68
2023/08/13 08:20:19;;;;;;;7.03;6.33;;;48.30;1.00;;;;;;5039928;28;20459;-68
2023/08/13 08:22:46;;;;;;;7.00;6.30;;;48.60;1.00;;;;;;5035542;28;21292;-68
2023/08/13 08:25:13;;;;;;;6.60;5.90;;;47.90;1.00;;;;;;5037447;28;20467;-68
2023/08/13 08:27:40;;;;;;;8.40;5.93;;;47.50;1.00;;;;;;5036470;28;20820;-66
2023/08/13 08:30:09;;;;;;;6.20;5.60;;;47.60;1.00;;;;;;5038309;28;20915;-66
2023/08/13 08:32:36;;;;;;;6.30;5.03;;;48.00;1.00;;;;;;5042488;28;20497;-68
2023/08/13 08:35:03;;;;;;;6.10;5.50;;;47.60;1.00;;;;;;5044033;28;20953;-65
2023/08/13 08:37:31;;;;;;;7.97;5.47;;;46.50;1.00;;;;;;5033168;28;21011;-68
2023/08/13 08:39:58;;;;;;;6.13;5.53;;;46.50;1.00;;;;;;5036510;28;20494;-66
2023/08/13 08:42:26;;;;;;;6.07;5.00;;;47.20;1.00;;;;;;5039502;28;20478;-68
2023/08/13 08:44:53;;;;;;;6.53;5.23;;;47.60;1.00;;;;;;5035876;28;20482;-67
2023/08/13 08:47:22;;;;;;;6.63;5.17;;;47.20;1.00;;;;;;5040812;28;20839;-68
2023/08/13 08:49:49;;;;;;;5.83;5.23;;;46.40;1.00;;;;;;5037915;28;20837;-68
2023/08/13 08:52:17;;;;;;;5.93;4.80;;;45.70;1.00;;;;;;5035208;28;20513;-68
2023/08/13 08:54:44;;;;;;;5.53;4.70;;;46.00;1.00;;;;;;5041397;28;20470;-66
2023/08/13 08:57:12;;;;;;;7.50;5.03;;;46.60;1.00;;;;;;5038086;28;20473;-66
2023/08/13 08:59:39;;;;;;;5.97;4.57;;;47.70;1.00;;;;;;5039939;28;20462;-66
2023/08/13 09:02:06;;;;;;;5.40;4.63;;;48.80;1.00;;;;;;5041233;28;20486;-66
2023/08/13 09:04:34;;;;;;;5.93;4.80;;;49.60;1.00;;;;;;5038828;28;20485;-66
2023/08/13 09:07:03;;;;;;;9.47;5.13;;;50.10;1.00;;;;;;5040920;28;20469;-67
2023/08/13 09:09:31;;;;;;;5.17;4.00;;;50.60;1.00;;;;;;5041693;28;21021;-66
2023/08/13 09:11:59;;;;;;;5.23;4.60;;;50.80;1.00;;;;;;5041714;28;20481;-67
2023/08/13 09:14:26;;;;;;;5.07;4.13;;;51.00;1.00;;;;;;5041537;28;20959;-67
2023/08/13 09:16:54;;;;;;;5.97;4.73;;;51.60;1.00;;;;;;5039352;28;20461;-67
2023/08/13 09:19:24;;;;;;;5.13;4.00;;;52.50;1.00;;;;;;5037958;28;20454;-67
2023/08/13 09:21:54;;;;;;;5.03;3.87;;;53.20;1.00;;;;;;5037648;28;20493;-67
2023/08/13 09:24:32;;;;;;;5.13;4.20;;;53.80;1.00;;;;;;5041415;28;20477;-67
2023/08/13 09:26:58;;;;;;;4.50;3.90;;;54.00;1.00;;;;;;5036590;28;20465;-67
2023/08/13 09:29:27;;;;;;;6.20;4.40;;;54.20;1.00;;;;;;5040748;28;20473;-67
2023/08/13 09:31:54;;;;;;;7.43;3.93;;;54.80;1.00;;;;;;5035315;28;20581;-67
2023/08/13 09:34:21;;;;;;;4.60;4.00;;;54.70;1.00;;;;;;5038544;28;20525;-67
2023/08/13 09:36:48;;;;;;;4.70;3.70;;;54.70;1.00;;;;;;5042308;28;20465;-67
2023/08/13 09:39:18;;;;;;;6.80;4.27;;;55.30;1.00;;;;;;5046738;28;20468;-67
2023/08/13 09:41:47;;;;;;;6.40;3.33;;;55.70;1.00;;;;;;5044136;28;20495;-67
2023/08/13 09:44:15;;;;;;;7.20;4.13;;;56.00;1.00;;;;;;5042830;28;20584;-67
2023/08/13 09:46:43;;;;;;;4.10;3.47;;;56.40;1.00;;;;;;5045281;28;20198;-66
2023/08/13 09:49:11;;;;;;;6.00;3.80;;;56.00;1.00;;;;;;5041365;28;20507;-67
2023/08/13 09:51:43;;;;;;;5.30;3.67;;;55.20;1.00;;;;;;5035244;28;20309;-67
2023/08/13 09:54:13;;;;;;;5.03;3.80;;;54.50;1.00;;;;;;5043875;28;20199;-67
2023/08/13 09:56:45;;;;;;;5.37;4.67;;;53.40;1.00;;;;;;5044054;28;21022;-68
2023/08/13 09:59:12;;;;;;;6.63;3.93;;;53.70;1.00;;;;;;5041533;28;20468;-67
2023/08/13 10:01:39;;;;;;;6.73;4.40;;;53.00;1.00;;;;;;5040032;28;20482;-67
2023/08/13 10:04:08;;;;;;;6.60;4.60;;;52.10;1.00;;;;;;5043806;28;20490;-66
2023/08/13 10:06:35;;;;;;;6.40;4.87;;;50.70;1.00;;;;;;5044531;28;20503;-65
2023/08/13 10:09:03;;;;;;;5.70;3.90;;;50.10;1.00;;;;;;5044364;28;20980;-67
2023/08/13 10:11:30;;;;;;;5.87;4.07;;;50.60;1.00;;;;;;5039413;28;20488;-65
2023/08/13 10:13:58;;;;;;;6.60;4.53;;;51.50;1.00;;;;;;5040202;28;20892;-66
2023/08/13 10:16:27;;;;;;;5.50;3.57;;;50.40;1.00;;;;;;5045026;28;21045;-66
2023/08/13 10:18:57;;;;;;;4.90;3.70;;;49.50;1.00;;;;;;5041339;28;20971;-66
2023/08/13 10:21:34;;;;;;;7.97;3.70;;;49.20;1.00;;;;;;5041974;28;20508;-66
2023/08/13 10:24:02;;;;;;;5.47;4.10;;;50.00;1.00;;;;;;5040597;28;20477;-66
2023/08/13 10:26:29;;;;;;;5.63;3.40;;;50.80;1.00;;;;;;5046833;28;20466;-66
2023/08/13 10:28:58;;;;;;;5.50;3.70;;;50.50;1.00;;;;;;5041661;28;20473;-66
2023/08/13 10:31:30;;;;;;;5.73;3.77;;;49.50;1.00;;;;;;5041138;28;20486;-67
2023/08/13 10:34:09;;;;;;;7.80;4.30;;;48.30;1.00;;;;;;5041305;28;20459;-66
2023/08/13 10:36:44;;;;;;;4.83;3.50;;;47.00;1.00;;;;;;5045820;28;20888;-67
2023/08/13 10:39:35;;;;;;;10.77;4.50;;;45.80;1.00;;;;;;5038300;28;20469;-66
2023/08/13 10:42:03;;;;;;;8.47;4.43;;;44.70;1.00;;;;;;5045475;28;20589;-66
2023/08/13 10:44:40;;;;;;;5.60;4.07;;;43.80;1.00;;;;;;5046066;28;20478;-66
2023/08/13 10:47:07;;;;;;;4.57;3.67;;;43.00;1.00;;;;;;5041822;28;20980;-66
2023/08/13 10:49:36;;;;;;;6.17;4.60;;;42.40;1.00;;;;;;5035672;28;20466;-66
2023/08/13 10:52:04;;;;;;;5.40;3.40;;;41.90;1.00;;;;;;5038919;28;20486;-67
2023/08/13 10:54:30;;;;;;;5.27;3.50;;;41.10;1.00;;;;;;5041429;28;20459;-67
2023/08/13 10:56:58;;;;;;;5.23;3.47;;;40.10;1.00;;;;;;5030288;28;20968;-66
2023/08/13 10:59:35;;;;;;;5.57;3.53;;;39.30;1.00;;;;;;5033512;28;20461;-67
2023/08/13 11:02:21;;;;;;;6.03;3.60;;;38.80;1.00;;;;;;5039193;28;20488;-66
2023/08/13 11:04:48;;;;;;;8.30;4.27;;;38.10;1.00;;;;;;5042148;28;20576;-68
2023/08/13 11:07:15;;;;;;;6.17;3.73;;;37.60;1.00;;;;;;5045751;28;20460;-68
2023/08/13 11:09:43;;;;;;;5.90;4.07;;;37.10;1.00;;;;;;5045432;28;20653;-68
2023/08/13 11:12:10;;;;;;;9.87;3.70;;;36.70;1.00;;;;;;5046164;28;20998;-68
2023/08/13 11:14:39;;;;;;;6.50;4.30;;;36.30;1.00;;;;;;5036356;28;20459;-68
2023/08/13 11:17:06;;;;;;;7.40;4.37;;;36.10;1.00;;;;;;5036153;28;20458;-68
2023/08/13 11:19:32;;;;;;;6.30;3.60;;;35.80;1.00;;;;;;5043070;28;20470;-68
2023/08/13 11:22:00;;;;;;;9.97;4.50;;;35.70;1.00;;;;;;5041385;28;20498;-67
2023/08/13 11:24:27;;;;;;;7.47;3.97;;;35.70;1.00;;;;;;5044212;28;20485;-68
2023/08/13 11:26:54;;;;;;;5.63;3.40;;;35.50;1.00;;;;;;5043915;28;20481;-69
2023/08/13 11:29:21;;;;;;;7.47;3.30;;;35.40;1.00;;;;;;5041047;28;20474;-66
2023/08/13 11:31:49;;;;;;;6.77;3.60;;;35.30;1.00;;;;;;5037717;28;21032;-68
2023/08/13 11:34:17;;;;;;;6.77;3.70;;;35.20;1.00;;;;;;5072941;23;20490;-63
2023/08/13 11:36:44;;;;;;;9.37;4.00;;;35.00;1.00;;;;;;5045570;28;20465;-62
2023/08/13 11:39:12;;;;;;;5.93;3.70;;;34.80;1.00;;;;;;5027739;28;20463;-62
2023/08/13 11:41:39;;;;;;;4.90;3.50;;;34.70;1.00;;;;;;5027511;28;20509;-64
2023/08/13 11:44:10;;;;;;;8.10;4.07;;;34.50;1.00;;;;;;5029481;28;20475;-65
2023/08/13 11:46:55;;;;;;;8.87;3.83;;;34.20;1.00;;;;;;5035174;28;20485;-64
2023/08/13 11:49:22;;;;;;;6.50;4.50;;;33.80;1.00;;;;;;5027706;28;20455;-66
2023/08/13 11:51:49;;;;;;;7.33;4.10;;;33.70;1.00;;;;;;5021958;28;20471;-63
2023/08/13 11:54:19;;;;;;;6.20;3.43;;;33.50;1.00;;;;;;5018515;28;20546;-64
2023/08/13 11:56:45;;;;;;;7.00;4.27;;;33.40;1.00;;;;;;5019520;28;20513;-64
2023/08/13 11:59:12;;;;;;;4.67;3.73;;;33.40;1.00;;;;;;5022988;28;20459;-64
2023/08/13 12:01:39;;;;;;;7.10;3.83;;;33.50;1.00;;;;;;5023956;28;20482;-64
2023/08/13 12:04:08;;;;;;;6.73;4.20;;;33.60;1.00;;;;;;5028006;28;20485;-64
2023/08/13 12:06:35;;;;;;;6.43;3.70;;;33.60;1.00;;;;;;5025688;28;20467;-64
2023/08/13 12:09:03;;;;;;;5.90;4.50;;;33.40;1.00;;;;;;5022488;28;20551;-64
2023/08/13 12:11:30;;;;;;;8.33;4.53;;;33.20;1.00;;;;;;5023588;28;20463;-64
2023/08/13 12:14:06;;;;;;;8.00;4.50;;;33.10;1.00;;;;;;5024731;28;20459;-64
2023/08/13 12:16:33;;;;;;;5.07;3.43;;;33.10;1.00;;;;;;5023513;28;20869;-63
2023/08/13 12:19:03;;;;;;;5.73;3.70;;;33.10;1.00;;;;;;5024732;28;20487;-63
2023/08/13 12:21:31;;;;;;;5.50;3.93;;;33.10;1.00;;;;;;5024990;28;20470;-65
2023/08/13 12:23:57;;;;;;;6.20;4.00;;;33.00;1.00;;;;;;5024575;28;20985;-64
2023/08/13 12:26:24;;;;;;;7.23;4.07;;;32.80;1.00;;;;;;5024078;28;20474;-64
2023/08/13 12:28:51;;;;;;;5.80;4.27;;;32.60;1.00;;;;;;5023813;28;20482;-64
2023/08/13 12:31:18;;;;;;;12.60;4.80;;;32.50;1.00;;;;;;5021730;28;20470;-64
2023/08/13 12:33:45;;;;;;;6.77;4.40;;;32.50;1.00;;;;;;5023308;28;20539;-64
2023/08/13 12:36:12;;;;;;;8.97;3.70;;;32.50;1.00;;;;;;5023710;28;20993;-64
2023/08/13 12:38:40;;;;;;;4.87;3.40;;;32.60;1.00;;;;;;5020333;28;20482;-64
2023/08/13 12:41:07;;;;;;;7.23;4.30;;;32.60;1.00;;;;;;5024192;28;20471;-64
2023/08/13 12:43:35;;;;;;;5.60;4.10;;;32.50;1.00;;;;;;5024487;28;20462;-63
2023/08/13 12:46:01;;;;;;;8.10;4.40;;;32.40;1.00;;;;;;5021880;28;20471;-64
2023/08/13 12:48:28;;;;;;;6.77;4.00;;;32.30;1.30;;;;;;5024740;28;20994;-65